sensor_id;sensor_type;location;lat;lon;timestamp;temperature;humidity
32296;DHT22;18781;51.550;5.418;2023-01-01T00:00:22;18.40;50.70
32296;DHT22;18781;51.550;5.418;2023-01-01T00:02:48;18.40;50.90
32296;DHT22;18781;51.550;5.418;2023-01-01T00:05:14;18.40;50.90
32296;DHT22;18781;51.550;5.418;2023-01-01T00:07:39;18.40;50.90
32296;DHT22;18781;51.550;5.418;2023-01-01T00:10:05;18.50;50.70
32296;DHT22;18781;51.550;5.418;2023-01-01T00:12:49;18.50;50.80
32296;DHT22;18781;51.550;5.418;2023-01-01T00:15:15;18.50;50.60
32296;DHT22;18781;51.550;5.418;2023-01-01T00:17:40;18.50;50.30
32296;DHT22;18781;51.550;5.418;2023-01-01T00:20:06;18.50;50.50
32296;DHT22;18781;51.550;5.418;2023-01-01T00:22:32;18.50;50.00
32296;DHT22;18781;51.550;5.418;2023-01-01T00:24:58;18.50;49.80
32296;DHT22;18781;51.550;5.418;2023-01-01T00:27:23;18.50;49.60
32296;DHT22;18781;51.550;5.418;2023-01-01T00:29:49;18.50;49.90
32296;DHT22;18781;51.550;5.418;2023-01-01T00:32:14;18.50;49.60
32296;DHT22;18781;51.550;5.418;2023-01-01T00:34:40;18.50;49.70
32296;DHT22;18781;51.550;5.418;2023-01-01T00:37:05;18.50;50.20
32296;DHT22;18781;51.550;5.418;2023-01-01T00:39:31;18.50;49.50
32296;DHT22;18781;51.550;5.418;2023-01-01T00:41:56;18.50;50.00
32296;DHT22;18781;51.550;5.418;2023-01-01T00:44:22;18.50;49.50
32296;DHT22;18781;51.550;5.418;2023-01-01T00:46:47;18.50;49.80
32296;DHT22;18781;51.550;5.418;2023-01-01T00:49:13;18.50;49.60
32296;DHT22;18781;51.550;5.418;2023-01-01T00:51:38;18.50;49.60
32296;DHT22;18781;51.550;5.418;2023-01-01T00:54:04;18.50;49.40
32296;DHT22;18781;51.550;5.418;2023-01-01T00:56:30;18.50;49.30
32296;DHT22;18781;51.550;5.418;2023-01-01T00:58:56;18.50;49.30
32296;DHT22;18781;51.550;5.418;2023-01-01T01:01:21;18.50;49.20
32296;DHT22;18781;51.550;5.418;2023-01-01T01:03:47;18.50;49.60
32296;DHT22;18781;51.550;5.418;2023-01-01T01:06:15;18.50;49.50
32296;DHT22;18781;51.550;5.418;2023-01-01T01:08:44;18.50;49.50
32296;DHT22;18781;51.550;5.418;2023-01-01T01:11:16;18.50;49.60
32296;DHT22;18781;51.550;5.418;2023-01-01T01:13:43;18.50;49.40
32296;DHT22;18781;51.550;5.418;2023-01-01T01:16:30;18.50;49.10
32296;DHT22;18781;51.550;5.418;2023-01-01T01:18:58;18.50;49.80
32296;DHT22;18781;51.550;5.418;2023-01-01T01:21:25;18.50;49.50
32296;DHT22;18781;51.550;5.418;2023-01-01T01:23:52;18.50;49.60
32296;DHT22;18781;51.550;5.418;2023-01-01T01:26:23;18.40;49.50
32296;DHT22;18781;51.550;5.418;2023-01-01T01:28:50;18.50;49.60
32296;DHT22;18781;51.550;5.418;2023-01-01T01:31:16;18.40;49.60
32296;DHT22;18781;51.550;5.418;2023-01-01T01:33:43;18.50;49.70
32296;DHT22;18781;51.550;5.418;2023-01-01T01:36:09;18.40;49.70
32296;DHT22;18781;51.550;5.418;2023-01-01T01:38:35;18.40;49.70
32296;DHT22;18781;51.550;5.418;2023-01-01T01:41:02;18.40;49.70
32296;DHT22;18781;51.550;5.418;2023-01-01T01:46:24;18.40;49.40
32296;DHT22;18781;51.550;5.418;2023-01-01T01:48:48;18.40;49.40
32296;DHT22;18781;51.550;5.418;2023-01-01T01:51:19;18.40;49.40
32296;DHT22;18781;51.550;5.418;2023-01-01T01:53:49;18.40;49.30
32296;DHT22;18781;51.550;5.418;2023-01-01T01:56:20;18.30;49.30
32296;DHT22;18781;51.550;5.418;2023-01-01T01:58:48;18.30;49.30
32296;DHT22;18781;51.550;5.418;2023-01-01T02:01:14;18.30;49.10
32296;DHT22;18781;51.550;5.418;2023-01-01T02:03:57;18.30;49.10
32296;DHT22;18781;51.550;5.418;2023-01-01T02:06:25;18.30;49.40
32296;DHT22;18781;51.550;5.418;2023-01-01T02:08:52;18.20;49.10
32296;DHT22;18781;51.550;5.418;2023-01-01T02:11:18;18.20;49.10
32296;DHT22;18781;51.550;5.418;2023-01-01T02:13:43;18.20;49.40
32296;DHT22;18781;51.550;5.418;2023-01-01T02:21:43;18.10;49.20
32296;DHT22;18781;51.550;5.418;2023-01-01T02:24:35;18.10;49.30
32296;DHT22;18781;51.550;5.418;2023-01-01T02:29:55;18.10;49.40
32296;DHT22;18781;51.550;5.418;2023-01-01T02:35:04;18.00;49.60
32296;DHT22;18781;51.550;5.418;2023-01-01T02:37:53;18.00;49.40
32296;DHT22;18781;51.550;5.418;2023-01-01T02:40:22;18.00;49.20
32296;DHT22;18781;51.550;5.418;2023-01-01T02:42:49;18.00;49.20
32296;DHT22;18781;51.550;5.418;2023-01-01T02:45:16;18.00;49.40
32296;DHT22;18781;51.550;5.418;2023-01-01T02:47:42;18.00;49.00
32296;DHT22;18781;51.550;5.418;2023-01-01T02:50:19;18.00;49.10
32296;DHT22;18781;51.550;5.418;2023-01-01T02:55:37;17.90;49.50
32296;DHT22;18781;51.550;5.418;2023-01-01T02:58:36;17.90;49.50
32296;DHT22;18781;51.550;5.418;2023-01-01T03:01:28;17.90;49.50
32296;DHT22;18781;51.550;5.418;2023-01-01T03:06:48;17.90;49.50
32296;DHT22;18781;51.550;5.418;2023-01-01T03:09:52;17.90;49.50
32296;DHT22;18781;51.550;5.418;2023-01-01T03:15:21;17.80;49.90
32296;DHT22;18781;51.550;5.418;2023-01-01T03:18:14;17.80;49.90
32296;DHT22;18781;51.550;5.418;2023-01-01T03:20:44;17.80;50.20
32296;DHT22;18781;51.550;5.418;2023-01-01T03:23:18;17.80;50.20
32296;DHT22;18781;51.550;5.418;2023-01-01T03:25:53;17.80;50.30
32296;DHT22;18781;51.550;5.418;2023-01-01T03:28:33;17.80;50.50
32296;DHT22;18781;51.550;5.418;2023-01-01T03:30:59;17.70;50.40
32296;DHT22;18781;51.550;5.418;2023-01-01T03:33:44;17.80;50.70
32296;DHT22;18781;51.550;5.418;2023-01-01T03:36:27;17.70;50.60
32296;DHT22;18781;51.550;5.418;2023-01-01T03:38:58;17.70;50.60
32296;DHT22;18781;51.550;5.418;2023-01-01T03:41:37;17.70;50.50
32296;DHT22;18781;51.550;5.418;2023-01-01T03:44:17;17.70;50.60
32296;DHT22;18781;51.550;5.418;2023-01-01T03:46:45;17.70;50.80
32296;DHT22;18781;51.550;5.418;2023-01-01T03:49:11;17.70;50.90
32296;DHT22;18781;51.550;5.418;2023-01-01T03:52:12;17.70;51.00
32296;DHT22;18781;51.550;5.418;2023-01-01T03:55:01;17.70;51.20
32296;DHT22;18781;51.550;5.418;2023-01-01T03:57:45;17.70;51.20
32296;DHT22;18781;51.550;5.418;2023-01-01T04:00:22;17.70;51.20
32296;DHT22;18781;51.550;5.418;2023-01-01T04:02:58;17.70;51.30
32296;DHT22;18781;51.550;5.418;2023-01-01T04:05:24;17.60;51.20
32296;DHT22;18781;51.550;5.418;2023-01-01T04:07:50;17.70;51.20
32296;DHT22;18781;51.550;5.418;2023-01-01T04:10:17;17.60;51.20
32296;DHT22;18781;51.550;5.418;2023-01-01T04:12:50;17.60;51.30
32296;DHT22;18781;51.550;5.418;2023-01-01T04:15:18;17.60;51.70
32296;DHT22;18781;51.550;5.418;2023-01-01T04:17:44;17.60;51.50
32296;DHT22;18781;51.550;5.418;2023-01-01T04:20:10;17.60;51.60
32296;DHT22;18781;51.550;5.418;2023-01-01T04:22:36;17.60;51.60
32296;DHT22;18781;51.550;5.418;2023-01-01T04:25:04;17.60;51.60
32296;DHT22;18781;51.550;5.418;2023-01-01T04:27:30;17.60;51.70
32296;DHT22;18781;51.550;5.418;2023-01-01T04:29:55;17.60;51.70
32296;DHT22;18781;51.550;5.418;2023-01-01T04:32:21;17.60;51.80
32296;DHT22;18781;51.550;5.418;2023-01-01T04:34:47;17.60;51.80
32296;DHT22;18781;51.550;5.418;2023-01-01T04:37:13;17.60;51.90
32296;DHT22;18781;51.550;5.418;2023-01-01T04:39:39;17.60;52.00
32296;DHT22;18781;51.550;5.418;2023-01-01T04:42:04;17.60;52.00
32296;DHT22;18781;51.550;5.418;2023-01-01T04:44:30;17.50;52.10
32296;DHT22;18781;51.550;5.418;2023-01-01T04:46:55;17.50;52.10
32296;DHT22;18781;51.550;5.418;2023-01-01T04:49:21;17.60;52.30
32296;DHT22;18781;51.550;5.418;2023-01-01T04:51:47;17.50;52.30
32296;DHT22;18781;51.550;5.418;2023-01-01T04:54:12;17.50;52.50
32296;DHT22;18781;51.550;5.418;2023-01-01T04:56:38;17.50;52.60
32296;DHT22;18781;51.550;5.418;2023-01-01T04:59:03;17.50;52.60
32296;DHT22;18781;51.550;5.418;2023-01-01T05:01:29;17.50;52.80
32296;DHT22;18781;51.550;5.418;2023-01-01T05:03:56;17.50;52.90
32296;DHT22;18781;51.550;5.418;2023-01-01T05:06:22;17.50;53.00
32296;DHT22;18781;51.550;5.418;2023-01-01T05:08:49;17.50;53.60
32296;DHT22;18781;51.550;5.418;2023-01-01T05:11:18;17.40;53.10
32296;DHT22;18781;51.550;5.418;2023-01-01T05:13:45;17.40;53.20
32296;DHT22;18781;51.550;5.418;2023-01-01T05:16:13;17.40;53.30
32296;DHT22;18781;51.550;5.418;2023-01-01T05:18:39;17.40;53.30
32296;DHT22;18781;51.550;5.418;2023-01-01T05:21:14;17.40;53.40
32296;DHT22;18781;51.550;5.418;2023-01-01T05:23:40;17.40;53.50
32296;DHT22;18781;51.550;5.418;2023-01-01T05:28:34;17.40;53.60
32296;DHT22;18781;51.550;5.418;2023-01-01T05:31:04;17.40;53.70
32296;DHT22;18781;51.550;5.418;2023-01-01T05:33:30;17.40;53.90
32296;DHT22;18781;51.550;5.418;2023-01-01T05:35:56;17.40;53.80
32296;DHT22;18781;51.550;5.418;2023-01-01T05:38:21;17.40;53.90
32296;DHT22;18781;51.550;5.418;2023-01-01T05:40:47;17.40;54.00
32296;DHT22;18781;51.550;5.418;2023-01-01T05:43:14;17.30;54.00
32296;DHT22;18781;51.550;5.418;2023-01-01T05:45:40;17.30;54.10
32296;DHT22;18781;51.550;5.418;2023-01-01T05:48:06;17.30;54.20
32296;DHT22;18781;51.550;5.418;2023-01-01T05:50:31;17.30;54.80
32296;DHT22;18781;51.550;5.418;2023-01-01T05:52:57;17.30;54.50
32296;DHT22;18781;51.550;5.418;2023-01-01T05:55:22;17.30;54.50
32296;DHT22;18781;51.550;5.418;2023-01-01T05:57:48;17.30;54.60
32296;DHT22;18781;51.550;5.418;2023-01-01T06:00:13;17.30;54.70
32296;DHT22;18781;51.550;5.418;2023-01-01T06:02:39;17.30;54.80
32296;DHT22;18781;51.550;5.418;2023-01-01T06:05:05;17.30;54.90
32296;DHT22;18781;51.550;5.418;2023-01-01T06:07:30;17.30;55.00
32296;DHT22;18781;51.550;5.418;2023-01-01T06:09:56;17.20;55.00
32296;DHT22;18781;51.550;5.418;2023-01-01T06:12:21;17.30;55.00
32296;DHT22;18781;51.550;5.418;2023-01-01T06:14:47;17.20;55.10
32296;DHT22;18781;51.550;5.418;2023-01-01T06:17:13;17.20;55.10
32296;DHT22;18781;51.550;5.418;2023-01-01T06:19:38;17.20;55.20
32296;DHT22;18781;51.550;5.418;2023-01-01T06:22:04;17.20;55.30
32296;DHT22;18781;51.550;5.418;2023-01-01T06:24:30;17.10;55.30
32296;DHT22;18781;51.550;5.418;2023-01-01T06:26:55;17.10;55.40
32296;DHT22;18781;51.550;5.418;2023-01-01T06:29:21;17.10;55.60
32296;DHT22;18781;51.550;5.418;2023-01-01T06:31:46;17.10;56.40
32296;DHT22;18781;51.550;5.418;2023-01-01T06:34:12;17.10;57.20
32296;DHT22;18781;51.550;5.418;2023-01-01T06:36:38;17.10;57.30
32296;DHT22;18781;51.550;5.418;2023-01-01T06:39:04;17.10;57.50
32296;DHT22;18781;51.550;5.418;2023-01-01T06:41:29;17.00;57.70
32296;DHT22;18781;51.550;5.418;2023-01-01T06:43:56;16.90;58.00
32296;DHT22;18781;51.550;5.418;2023-01-01T06:46:28;16.90;58.00
32296;DHT22;18781;51.550;5.418;2023-01-01T06:48:56;16.80;58.30
32296;DHT22;18781;51.550;5.418;2023-01-01T06:51:27;16.70;58.50
32296;DHT22;18781;51.550;5.418;2023-01-01T06:53:54;16.60;58.80
32296;DHT22;18781;51.550;5.418;2023-01-01T06:56:21;16.60;58.70
32296;DHT22;18781;51.550;5.418;2023-01-01T06:58:47;16.50;58.90
32296;DHT22;18781;51.550;5.418;2023-01-01T07:01:14;16.40;59.00
32296;DHT22;18781;51.550;5.418;2023-01-01T07:03:41;16.40;59.50
32296;DHT22;18781;51.550;5.418;2023-01-01T07:06:07;16.40;59.80
32296;DHT22;18781;51.550;5.418;2023-01-01T07:08:34;16.30;60.40
32296;DHT22;18781;51.550;5.418;2023-01-01T07:10:59;16.30;60.30
32296;DHT22;18781;51.550;5.418;2023-01-01T07:13:26;16.20;60.60
32296;DHT22;18781;51.550;5.418;2023-01-01T07:15:52;16.20;60.90
32296;DHT22;18781;51.550;5.418;2023-01-01T07:18:19;16.20;61.00
32296;DHT22;18781;51.550;5.418;2023-01-01T07:20:51;16.10;61.50
32296;DHT22;18781;51.550;5.418;2023-01-01T07:23:17;16.10;61.90
32296;DHT22;18781;51.550;5.418;2023-01-01T07:25:43;16.00;62.30
32296;DHT22;18781;51.550;5.418;2023-01-01T07:28:09;16.00;61.70
32296;DHT22;18781;51.550;5.418;2023-01-01T07:30:34;16.00;61.50
32296;DHT22;18781;51.550;5.418;2023-01-01T07:33:00;15.90;61.50
32296;DHT22;18781;51.550;5.418;2023-01-01T07:35:26;15.90;61.50
32296;DHT22;18781;51.550;5.418;2023-01-01T07:37:51;15.90;61.30
32296;DHT22;18781;51.550;5.418;2023-01-01T07:40:17;15.80;61.00
32296;DHT22;18781;51.550;5.418;2023-01-01T07:42:43;15.80;60.90
32296;DHT22;18781;51.550;5.418;2023-01-01T07:45:11;15.80;60.80
32296;DHT22;18781;51.550;5.418;2023-01-01T07:47:36;15.70;60.90
32296;DHT22;18781;51.550;5.418;2023-01-01T07:50:02;15.70;60.70
32296;DHT22;18781;51.550;5.418;2023-01-01T07:52:28;15.70;61.00
32296;DHT22;18781;51.550;5.418;2023-01-01T07:54:54;15.60;61.20
32296;DHT22;18781;51.550;5.418;2023-01-01T07:57:19;15.60;61.50
32296;DHT22;18781;51.550;5.418;2023-01-01T07:59:45;15.60;61.60
32296;DHT22;18781;51.550;5.418;2023-01-01T08:02:11;15.60;61.90
32296;DHT22;18781;51.550;5.418;2023-01-01T08:04:37;15.50;62.10
32296;DHT22;18781;51.550;5.418;2023-01-01T08:07:03;15.50;62.40
32296;DHT22;18781;51.550;5.418;2023-01-01T08:09:29;15.50;62.70
32296;DHT22;18781;51.550;5.418;2023-01-01T08:11:54;15.50;62.90
32296;DHT22;18781;51.550;5.418;2023-01-01T08:14:23;15.50;63.40
32296;DHT22;18781;51.550;5.418;2023-01-01T08:16:50;15.40;63.50
32296;DHT22;18781;51.550;5.418;2023-01-01T08:19:16;15.40;63.80
32296;DHT22;18781;51.550;5.418;2023-01-01T08:21:41;15.30;63.80
32296;DHT22;18781;51.550;5.418;2023-01-01T08:24:07;15.30;64.00
32296;DHT22;18781;51.550;5.418;2023-01-01T08:26:34;15.30;64.20
32296;DHT22;18781;51.550;5.418;2023-01-01T08:29:03;15.30;64.60
32296;DHT22;18781;51.550;5.418;2023-01-01T08:31:29;15.30;64.80
32296;DHT22;18781;51.550;5.418;2023-01-01T08:33:54;15.20;64.60
32296;DHT22;18781;51.550;5.418;2023-01-01T08:36:20;15.30;65.00
32296;DHT22;18781;51.550;5.418;2023-01-01T08:38:46;15.20;65.00
32296;DHT22;18781;51.550;5.418;2023-01-01T08:41:11;15.20;65.20
32296;DHT22;18781;51.550;5.418;2023-01-01T08:43:37;15.20;65.50
32296;DHT22;18781;51.550;5.418;2023-01-01T08:46:02;15.20;65.60
32296;DHT22;18781;51.550;5.418;2023-01-01T08:48:28;15.10;65.50
32296;DHT22;18781;51.550;5.418;2023-01-01T08:50:54;15.10;65.70
32296;DHT22;18781;51.550;5.418;2023-01-01T08:53:21;15.10;65.90
32296;DHT22;18781;51.550;5.418;2023-01-01T08:55:57;15.10;66.00
32296;DHT22;18781;51.550;5.418;2023-01-01T08:58:23;15.10;67.00
32296;DHT22;18781;51.550;5.418;2023-01-01T09:00:49;15.10;66.10
32296;DHT22;18781;51.550;5.418;2023-01-01T09:03:14;15.10;66.30
32296;DHT22;18781;51.550;5.418;2023-01-01T09:05:40;15.10;66.40
32296;DHT22;18781;51.550;5.418;2023-01-01T09:08:10;15.10;66.50
32296;DHT22;18781;51.550;5.418;2023-01-01T09:10:36;15.10;66.50
32296;DHT22;18781;51.550;5.418;2023-01-01T09:13:01;15.10;66.70
32296;DHT22;18781;51.550;5.418;2023-01-01T09:15:27;15.10;66.80
32296;DHT22;18781;51.550;5.418;2023-01-01T09:17:52;15.10;66.70
32296;DHT22;18781;51.550;5.418;2023-01-01T09:20:18;15.10;66.90
32296;DHT22;18781;51.550;5.418;2023-01-01T09:22:43;15.10;66.80
32296;DHT22;18781;51.550;5.418;2023-01-01T09:25:09;15.10;67.00
32296;DHT22;18781;51.550;5.418;2023-01-01T09:27:35;15.10;67.00
32296;DHT22;18781;51.550;5.418;2023-01-01T09:30:00;15.10;67.00
32296;DHT22;18781;51.550;5.418;2023-01-01T09:32:26;15.10;67.00
32296;DHT22;18781;51.550;5.418;2023-01-01T09:34:51;15.10;67.10
32296;DHT22;18781;51.550;5.418;2023-01-01T09:37:17;15.10;67.20
32296;DHT22;18781;51.550;5.418;2023-01-01T09:39:43;15.20;67.40
32296;DHT22;18781;51.550;5.418;2023-01-01T09:45:24;15.20;68.50
32296;DHT22;18781;51.550;5.418;2023-01-01T09:48:04;15.20;68.30
32296;DHT22;18781;51.550;5.418;2023-01-01T09:50:42;15.20;68.20
32296;DHT22;18781;51.550;5.418;2023-01-01T09:55:50;15.10;68.00
32296;DHT22;18781;51.550;5.418;2023-01-01T09:58:25;15.10;68.10
32296;DHT22;18781;51.550;5.418;2023-01-01T10:00:54;15.10;67.50
32296;DHT22;18781;51.550;5.418;2023-01-01T10:06:26;15.10;68.50
32296;DHT22;18781;51.550;5.418;2023-01-01T10:09:22;15.10;68.50
32296;DHT22;18781;51.550;5.418;2023-01-01T10:14:41;15.10;68.20
32296;DHT22;18781;51.550;5.418;2023-01-01T10:17:33;15.00;68.30
32296;DHT22;18781;51.550;5.418;2023-01-01T10:20:03;15.00;68.60
32296;DHT22;18781;51.550;5.418;2023-01-01T10:22:36;15.00;67.90
32296;DHT22;18781;51.550;5.418;2023-01-01T10:25:18;15.00;68.20
32296;DHT22;18781;51.550;5.418;2023-01-01T10:28:10;15.00;68.40
32296;DHT22;18781;51.550;5.418;2023-01-01T10:30:40;15.00;68.70
32296;DHT22;18781;51.550;5.418;2023-01-01T10:33:11;15.00;68.10
32296;DHT22;18781;51.550;5.418;2023-01-01T10:35:43;15.00;68.40
32296;DHT22;18781;51.550;5.418;2023-01-01T10:38:24;15.00;68.30
32296;DHT22;18781;51.550;5.418;2023-01-01T10:40:58;15.00;68.40
32296;DHT22;18781;51.550;5.418;2023-01-01T10:43:26;15.00;68.80
32296;DHT22;18781;51.550;5.418;2023-01-01T10:45:53;15.00;68.30
32296;DHT22;18781;51.550;5.418;2023-01-01T10:48:24;15.00;68.40
32296;DHT22;18781;51.550;5.418;2023-01-01T10:50:55;15.00;68.40
32296;DHT22;18781;51.550;5.418;2023-01-01T10:53:36;15.10;68.80
32296;DHT22;18781;51.550;5.418;2023-01-01T10:58:51;15.10;68.50
32296;DHT22;18781;51.550;5.418;2023-01-01T11:01:20;15.10;68.90
32296;DHT22;18781;51.550;5.418;2023-01-01T11:03:59;15.10;68.40
32296;DHT22;18781;51.550;5.418;2023-01-01T11:06:36;15.20;68.80
32296;DHT22;18781;51.550;5.418;2023-01-01T11:11:56;15.20;68.60
32296;DHT22;18781;51.550;5.418;2023-01-01T11:14:28;15.20;68.70
32296;DHT22;18781;51.550;5.418;2023-01-01T11:16:56;15.20;68.70
32296;DHT22;18781;51.550;5.418;2023-01-01T11:19:33;15.30;68.50
32296;DHT22;18781;51.550;5.418;2023-01-01T11:22:01;15.40;68.70
32296;DHT22;18781;51.550;5.418;2023-01-01T11:24:30;15.30;68.20
32296;DHT22;18781;51.550;5.418;2023-01-01T11:29:43;15.50;68.20
32296;DHT22;18781;51.550;5.418;2023-01-01T11:32:15;15.50;68.00
32296;DHT22;18781;51.550;5.418;2023-01-01T11:34:42;15.50;68.00
32296;DHT22;18781;51.550;5.418;2023-01-01T11:37:26;15.50;68.00
32296;DHT22;18781;51.550;5.418;2023-01-01T11:39:55;15.50;68.00
32296;DHT22;18781;51.550;5.418;2023-01-01T11:42:26;15.60;67.90
32296;DHT22;18781;51.550;5.418;2023-01-01T11:49:57;15.60;67.70
32296;DHT22;18781;51.550;5.418;2023-01-01T11:52:38;15.70;67.60
32296;DHT22;18781;51.550;5.418;2023-01-01T11:58:54;15.80;67.30
32296;DHT22;18781;51.550;5.418;2023-01-01T12:06:56;15.80;66.80
32296;DHT22;18781;51.550;5.418;2023-01-01T12:09:32;15.80;66.60
32296;DHT22;18781;51.550;5.418;2023-01-01T12:12:34;15.90;66.80
32296;DHT22;18781;51.550;5.418;2023-01-01T12:15:06;15.90;67.20
32296;DHT22;18781;51.550;5.418;2023-01-01T12:20:35;15.90;66.50
32296;DHT22;18781;51.550;5.418;2023-01-01T12:23:01;15.90;66.60
32296;DHT22;18781;51.550;5.418;2023-01-01T12:25:43;16.00;66.40
32296;DHT22;18781;51.550;5.418;2023-01-01T12:28:25;16.00;66.00
32296;DHT22;18781;51.550;5.418;2023-01-01T12:33:58;16.00;65.70
32296;DHT22;18781;51.550;5.418;2023-01-01T12:42:18;16.10;64.90
32296;DHT22;18781;51.550;5.418;2023-01-01T12:45:12;16.10;64.90
32296;DHT22;18781;51.550;5.418;2023-01-01T12:47:56;16.10;65.00
32296;DHT22;18781;51.550;5.418;2023-01-01T12:50:28;16.10;64.90
32296;DHT22;18781;51.550;5.418;2023-01-01T12:58:51;16.10;64.40
32296;DHT22;18781;51.550;5.418;2023-01-01T13:01:26;16.20;64.40
32296;DHT22;18781;51.550;5.418;2023-01-01T13:04:20;16.20;64.10
32296;DHT22;18781;51.550;5.418;2023-01-01T13:06:52;16.20;64.10
32296;DHT22;18781;51.550;5.418;2023-01-01T13:09:26;16.20;63.80
32296;DHT22;18781;51.550;5.418;2023-01-01T13:12:07;16.20;63.90
32296;DHT22;18781;51.550;5.418;2023-01-01T13:14:40;16.20;64.20
32296;DHT22;18781;51.550;5.418;2023-01-01T13:17:22;16.20;63.90
32296;DHT22;18781;51.550;5.418;2023-01-01T13:20:38;16.20;63.40
32296;DHT22;18781;51.550;5.418;2023-01-01T13:22:38;16.20;63.60
32296;DHT22;18781;51.550;5.418;2023-01-01T13:33:22;16.20;63.50
32296;DHT22;18781;51.550;5.418;2023-01-01T13:38:50;16.20;63.40
32296;DHT22;18781;51.550;5.418;2023-01-01T13:46:54;16.30;63.10
32296;DHT22;18781;51.550;5.418;2023-01-01T13:52:57;16.30;62.90
32296;DHT22;18781;51.550;5.418;2023-01-01T13:55:38;16.30;63.00
32296;DHT22;18781;51.550;5.418;2023-01-01T14:01:07;16.30;62.60
32296;DHT22;18781;51.550;5.418;2023-01-01T14:03:48;16.30;62.80
32296;DHT22;18781;51.550;5.418;2023-01-01T14:06:28;16.20;62.80
32296;DHT22;18781;51.550;5.418;2023-01-01T14:11:33;16.20;62.40
32296;DHT22;18781;51.550;5.418;2023-01-01T14:13:59;16.20;62.60
32296;DHT22;18781;51.550;5.418;2023-01-01T14:16:25;16.20;62.70
32296;DHT22;18781;51.550;5.418;2023-01-01T14:18:55;16.20;62.50
32296;DHT22;18781;51.550;5.418;2023-01-01T14:21:28;16.20;62.50
32296;DHT22;18781;51.550;5.418;2023-01-01T14:24:03;16.20;62.70
32296;DHT22;18781;51.550;5.418;2023-01-01T14:26:31;16.20;62.70
32296;DHT22;18781;51.550;5.418;2023-01-01T14:28:59;16.20;62.80
32296;DHT22;18781;51.550;5.418;2023-01-01T14:31:29;16.20;63.40
32296;DHT22;18781;51.550;5.418;2023-01-01T14:33:55;16.20;62.80
32296;DHT22;18781;51.550;5.418;2023-01-01T14:36:27;16.20;62.90
32296;DHT22;18781;51.550;5.418;2023-01-01T14:38:55;16.20;62.80
32296;DHT22;18781;51.550;5.418;2023-01-01T14:41:31;16.20;62.90
32296;DHT22;18781;51.550;5.418;2023-01-01T14:44:12;16.20;62.80
32296;DHT22;18781;51.550;5.418;2023-01-01T14:46:47;16.20;62.80
32296;DHT22;18781;51.550;5.418;2023-01-01T14:49:34;16.20;63.50
32296;DHT22;18781;51.550;5.418;2023-01-01T14:52:30;16.10;62.90
32296;DHT22;18781;51.550;5.418;2023-01-01T14:54:59;16.20;62.80
32296;DHT22;18781;51.550;5.418;2023-01-01T14:57:30;16.20;63.00
32296;DHT22;18781;51.550;5.418;2023-01-01T14:59:56;16.10;62.90
32296;DHT22;18781;51.550;5.418;2023-01-01T15:02:27;16.10;63.00
32296;DHT22;18781;51.550;5.418;2023-01-01T15:04:57;16.10;63.00
32296;DHT22;18781;51.550;5.418;2023-01-01T15:07:26;16.10;63.10
32296;DHT22;18781;51.550;5.418;2023-01-01T15:09:53;16.10;63.00
32296;DHT22;18781;51.550;5.418;2023-01-01T15:12:20;16.10;63.00
32296;DHT22;18781;51.550;5.418;2023-01-01T15:14:47;16.10;63.10
32296;DHT22;18781;51.550;5.418;2023-01-01T15:17:23;16.10;63.20
32296;DHT22;18781;51.550;5.418;2023-01-01T15:20:18;16.10;63.10
32296;DHT22;18781;51.550;5.418;2023-01-01T15:22:44;16.10;63.10
32296;DHT22;18781;51.550;5.418;2023-01-01T15:25:15;16.10;63.20
32296;DHT22;18781;51.550;5.418;2023-01-01T15:27:41;16.00;63.70
32296;DHT22;18781;51.550;5.418;2023-01-01T15:30:25;16.00;63.20
32296;DHT22;18781;51.550;5.418;2023-01-01T15:32:51;16.00;63.30
32296;DHT22;18781;51.550;5.418;2023-01-01T15:35:28;16.00;63.40
32296;DHT22;18781;51.550;5.418;2023-01-01T15:37:58;16.00;63.40
32296;DHT22;18781;51.550;5.418;2023-01-01T15:45:20;15.90;63.50
32296;DHT22;18781;51.550;5.418;2023-01-01T15:47:47;15.90;63.50
32296;DHT22;18781;51.550;5.418;2023-01-01T15:52:42;15.90;63.60
32296;DHT22;18781;51.550;5.418;2023-01-01T15:55:15;15.90;63.60
32296;DHT22;18781;51.550;5.418;2023-01-01T15:57:49;15.90;63.70
32296;DHT22;18781;51.550;5.418;2023-01-01T16:00:26;15.90;63.80
32296;DHT22;18781;51.550;5.418;2023-01-01T16:02:58;15.90;63.90
32296;DHT22;18781;51.550;5.418;2023-01-01T16:05:26;15.90;63.80
32296;DHT22;18781;51.550;5.418;2023-01-01T16:07:57;15.90;63.80
32296;DHT22;18781;51.550;5.418;2023-01-01T16:10:23;15.80;63.90
32296;DHT22;18781;51.550;5.418;2023-01-01T16:12:49;15.80;64.00
32296;DHT22;18781;51.550;5.418;2023-01-01T16:15:14;15.80;64.00
32296;DHT22;18781;51.550;5.418;2023-01-01T16:17:41;15.80;64.10
32296;DHT22;18781;51.550;5.418;2023-01-01T16:20:14;15.80;64.20
32296;DHT22;18781;51.550;5.418;2023-01-01T16:22:40;15.80;64.40
32296;DHT22;18781;51.550;5.418;2023-01-01T16:25:15;15.80;64.40
32296;DHT22;18781;51.550;5.418;2023-01-01T16:27:41;15.80;64.60
32296;DHT22;18781;51.550;5.418;2023-01-01T16:30:07;15.80;64.50
32296;DHT22;18781;51.550;5.418;2023-01-01T16:32:32;15.80;64.60
32296;DHT22;18781;51.550;5.418;2023-01-01T16:34:58;15.70;64.70
32296;DHT22;18781;51.550;5.418;2023-01-01T16:37:24;15.80;64.80
32296;DHT22;18781;51.550;5.418;2023-01-01T16:39:49;15.70;65.00
32296;DHT22;18781;51.550;5.418;2023-01-01T16:42:15;15.70;65.00
32296;DHT22;18781;51.550;5.418;2023-01-01T16:44:41;15.70;65.10
32296;DHT22;18781;51.550;5.418;2023-01-01T16:47:07;15.70;65.70
32296;DHT22;18781;51.550;5.418;2023-01-01T16:49:32;15.70;65.30
32296;DHT22;18781;51.550;5.418;2023-01-01T16:51:58;15.60;65.30
32296;DHT22;18781;51.550;5.418;2023-01-01T16:54:24;15.70;65.40
32296;DHT22;18781;51.550;5.418;2023-01-01T16:56:49;15.60;65.50
32296;DHT22;18781;51.550;5.418;2023-01-01T16:59:15;15.60;65.60
32296;DHT22;18781;51.550;5.418;2023-01-01T17:01:41;15.60;65.70
32296;DHT22;18781;51.550;5.418;2023-01-01T17:04:06;15.60;65.80
32296;DHT22;18781;51.550;5.418;2023-01-01T17:06:32;15.50;65.80
32296;DHT22;18781;51.550;5.418;2023-01-01T17:08:58;15.50;65.90
32296;DHT22;18781;51.550;5.418;2023-01-01T17:11:25;15.50;66.00
32296;DHT22;18781;51.550;5.418;2023-01-01T17:13:50;15.50;66.10
32296;DHT22;18781;51.550;5.418;2023-01-01T17:16:16;15.50;66.10
32296;DHT22;18781;51.550;5.418;2023-01-01T17:18:43;15.50;66.20
32296;DHT22;18781;51.550;5.418;2023-01-01T17:21:13;15.50;66.30
32296;DHT22;18781;51.550;5.418;2023-01-01T17:23:39;15.50;66.40
32296;DHT22;18781;51.550;5.418;2023-01-01T17:26:15;15.40;66.60
32296;DHT22;18781;51.550;5.418;2023-01-01T17:28:41;15.40;67.10
32296;DHT22;18781;51.550;5.418;2023-01-01T17:31:10;15.40;66.90
32296;DHT22;18781;51.550;5.418;2023-01-01T17:33:36;15.40;67.00
32296;DHT22;18781;51.550;5.418;2023-01-01T17:36:03;15.40;67.00